Time;durP1;ratioP1;P1;durP2;ratioP2;P2;SDS_P1;SDS_P2;PMS_P1;PMS_P2;Temp;Humidity;BMP_temperature;BMP_pressure;BME280_temperature;BME280_humidity;BME280_pressure;Samples;Min_cycle;Max_cycle;Signal;HPM_P1;HPM_P2
2022/08/08 00:01:56;;;;;;;2.55;1.63;;;25.10;89.20;;;;;;5053719;28;20086;-50
2022/08/08 00:04:31;;;;;;;1.40;1.30;;;25.00;53.60;;;;;;5053875;28;20035;-50
2022/08/08 00:07:13;;;;;;;3.20;1.58;;;24.90;53.50;;;;;;5053790;28;20100;-50
2022/08/08 00:10:07;;;;;;;1.65;1.20;;;24.90;89.20;;;;;;5053680;28;20025;-51
2022/08/08 00:12:48;;;;;;;1.70;1.33;;;25.10;89.00;;;;;;5053614;28;20033;-50
2022/08/08 00:15:18;;;;;;;2.88;1.20;;;25.30;89.50;;;;;;5053681;28;20044;-51
2022/08/08 00:17:49;;;;;;;3.05;1.50;;;25.10;89.10;;;;;;5053536;28;20036;-50
2022/08/08 00:20:31;;;;;;;1.67;1.30;;;25.00;53.80;;;;;;5053770;28;20033;-49
2022/08/08 00:23:02;;;;;;;1.77;1.30;;;25.10;89.50;;;;;;5053698;28;20411;-50
2022/08/08 00:25:36;;;;;;;1.58;1.38;;;25.00;53.70;;;;;;5053465;28;20062;-50
2022/08/08 00:28:06;;;;;;;2.72;1.20;;;24.90;53.70;;;;;;5052911;28;20033;-50
2022/08/08 00:30:36;;;;;;;1.20;1.10;;;24.90;53.60;;;;;;5053174;28;20488;-49
2022/08/08 00:33:31;;;;;;;2.60;1.25;;;24.70;53.60;;;;;;5053411;28;20024;-51
2022/08/08 00:36:22;;;;;;;1.60;1.25;;;24.80;89.10;;;;;;5049108;28;20037;-53
2022/08/08 00:38:53;;;;;;;1.92;1.35;;;24.90;49.20;;;;;;5053154;28;20147;-52
2022/08/08 00:41:34;;;;;;;2.70;1.25;;;24.90;89.30;;;;;;5053097;28;20033;-49
2022/08/08 00:44:31;;;;;;;2.08;1.30;;;24.90;49.30;;;;;;5053323;28;20190;-50
2022/08/08 00:47:20;;;;;;;3.03;1.33;;;25.10;58.40;;;;;;5052947;28;20028;-51
2022/08/08 00:50:20;;;;;;;1.63;1.30;;;27.50;51.10;;;;;;5052900;28;20033;-49
2022/08/08 00:52:52;;;;;;;2.28;1.33;;;24.60;89.20;;;;;;5053204;28;20075;-50
2022/08/08 00:55:37;;;;;;;1.80;1.00;;;24.80;49.20;;;;;;5052842;28;20040;-50
2022/08/08 00:58:03;;;;;;;1.80;1.20;;;;;;;;;;5052632;28;20090;-50
2022/08/08 01:00:38;;;;;;;1.88;1.15;;;25.10;89.30;;;;;;5052546;28;20049;-50
2022/08/08 01:03:28;;;;;;;1.63;1.40;;;24.80;49.30;;;;;;5052651;28;20399;-49
2022/08/08 01:06:10;;;;;;;2.08;1.38;;;24.80;49.30;;;;;;5052673;28;20033;-50
2022/08/08 01:08:55;;;;;;;1.30;1.10;;;24.40;89.30;;;;;;5052641;28;20108;-49
2022/08/08 01:12:11;;;;;;;3.45;1.65;;;25.00;73.00;;;;;;5052732;28;20472;-50
2022/08/08 01:14:52;;;;;;;3.13;1.45;;;24.50;88.30;;;;;;5018485;28;20044;-50
2022/08/08 01:17:54;;;;;;;1.63;1.23;;;24.40;89.20;;;;;;5052635;28;20361;-51
2022/08/08 01:20:41;;;;;;;1.92;1.35;;;27.80;51.40;;;;;;5052407;28;20083;-50
2022/08/08 01:23:15;;;;;;;1.95;1.10;;;24.70;89.00;;;;;;5052320;28;20033;-49
2022/08/08 01:26:03;;;;;;;1.52;1.25;;;24.20;88.80;;;;;;5052302;28;20021;-51
2022/08/08 01:29:14;;;;;;;3.60;1.30;;;24.60;64.80;;;;;;5052471;28;20029;-48
2022/08/08 01:32:15;;;;;;;1.75;1.33;;;24.50;49.30;;;;;;5021481;28;20044;-50
2022/08/08 01:34:44;;;;;;;1.50;1.33;;;24.50;89.00;;;;;;5052347;28;20533;-49
2022/08/08 01:37:57;;;;;;;2.90;1.30;;;24.70;88.90;;;;;;5052219;28;20078;-49
2022/08/08 01:40:44;;;;;;;1.20;1.10;;;24.70;88.90;;;;;;5051867;28;20035;-49
2022/08/08 01:43:27;;;;;;;1.42;1.20;;;24.70;49.30;;;;;;5051976;28;20047;-49
2022/08/08 01:46:11;;;;;;;1.92;1.45;;;25.10;57.10;;;;;;5052206;28;20040;-49
2022/08/08 01:49:13;;;;;;;2.55;1.08;;;24.60;63.70;;;;;;5052207;28;20395;-50
2022/08/08 01:51:57;;;;;;;1.10;1.00;;;24.70;88.90;;;;;;5052076;28;20543;-50
2022/08/08 01:54:49;;;;;;;1.35;1.25;;;24.80;89.00;;;;;;5052325;28;20391;-50
2022/08/08 01:58:07;;;;;;;2.10;1.50;;;24.50;89.00;;;;;;5052008;28;20029;-49
2022/08/08 02:00:45;;;;;;;1.55;1.40;;;24.80;53.90;;;;;;5051880;28;20499;-50
2022/08/08 02:03:38;;;;;;;3.45;1.13;;;24.30;89.30;;;;;;5051889;28;20116;-50
2022/08/08 02:06:33;;;;;;;2.13;1.58;;;24.50;89.40;;;;;;5052027;28;20028;-50
2022/08/08 02:09:17;;;;;;;1.20;1.00;;;24.70;54.10;;;;;;5044618;28;20045;-49
2022/08/08 02:11:45;;;;;;;1.98;1.13;;;24.70;54.10;;;;;;5051896;28;20025;-49
2022/08/08 02:14:32;;;;;;;1.45;1.35;;;25.00;89.70;;;;;;5052077;28;20040;-49
2022/08/08 02:17:23;;;;;;;1.23;1.10;;;24.70;49.50;;;;;;5051887;28;20067;-49
2022/08/08 02:19:58;;;;;;;1.58;1.10;;;24.70;54.10;;;;;;5051850;28;20032;-50
2022/08/08 02:22:50;;;;;;;2.08;1.20;;;24.70;49.60;;;;;;5051765;28;20040;-50
2022/08/08 02:25:37;;;;;;;1.17;1.02;;;24.40;89.50;;;;;;5015755;28;20076;-50
2022/08/08 02:28:04;;;;;;;2.33;1.20;;;24.40;82.20;;;;;;5051778;28;20033;-50
2022/08/08 02:30:42;;;;;;;1.35;1.25;;;24.60;54.20;;;;;;5051783;28;20060;-50
2022/08/08 02:33:59;;;;;;;1.23;1.00;;;24.30;86.50;;;;;;5051659;28;20434;-50
2022/08/08 02:36:41;;;;;;;2.85;0.95;;;24.70;54.30;;;;;;5051642;28;20029;-50
2022/08/08 02:39:10;;;;;;;2.70;1.40;;;24.50;87.00;;;;;;5051630;28;20032;-50
2022/08/08 02:42:11;;;;;;;1.20;1.10;;;24.30;89.70;;;;;;5051740;28;20112;-49
2022/08/08 02:44:40;;;;;;;1.13;0.85;;;24.60;89.70;;;;;;5051901;28;20162;-50
2022/08/08 02:47:35;;;;;;;2.40;1.33;;;24.30;79.60;;;;;;5051550;28;20021;-50
2022/08/08 02:50:01;;;;;;;1.63;1.10;;;;;;;;;;4980396;28;20466;-50
2022/08/08 02:52:38;;;;;;;1.45;1.08;;;24.80;52.60;;;;;;5053281;28;20049;-50
2022/08/08 02:55:09;;;;;;;1.63;1.10;;;24.20;89.60;;;;;;5055085;28;20039;-51
2022/08/08 02:57:56;;;;;;;2.25;1.27;;;24.70;70.80;;;;;;5055022;28;20071;-50
2022/08/08 03:00:55;;;;;;;1.52;1.00;;;24.80;89.80;;;;;;5054957;28;20549;-51
2022/08/08 03:03:58;;;;;;;2.70;1.02;;;24.70;89.80;;;;;;5054841;28;20055;-49
2022/08/08 03:07:08;;;;;;;1.20;1.10;;;24.70;90.00;;;;;;5054863;28;20120;-52
2022/08/08 03:09:45;;;;;;;;;;;24.60;50.30;;;;;;5055312;28;20029;-50
2022/08/08 03:12:46;;;;;;;0.90;0.90;;;24.50;49.60;;;;;;5054814;28;19955;-48
2022/08/08 03:15:12;;;;;;;1.90;1.13;;;;;;;;;;4973604;28;20034;-49
2022/08/08 03:17:51;;;;;;;1.05;0.95;;;24.50;49.60;;;;;;5038242;28;20048;-50
2022/08/08 03:20:17;;;;;;;3.00;1.27;;;24.10;85.60;;;;;;5037447;28;20032;-48
2022/08/08 03:22:51;;;;;;;1.55;1.20;;;24.50;49.60;;;;;;5054590;28;20045;-50
2022/08/08 03:25:21;;;;;;;1.42;1.20;;;24.80;90.00;;;;;;5054516;28;20100;-49
2022/08/08 03:27:54;;;;;;;1.20;0.80;;;24.50;49.70;;;;;;5054548;28;20029;-49
2022/08/08 03:30:20;;;;;;;1.45;1.20;;;;;;;;;;5054436;28;20048;-49
2022/08/08 03:35:37;;;;;;;1.25;0.80;;;24.50;54.50;;;;;;5054699;28;20040;-49
2022/08/08 03:38:03;;;;;;;3.42;1.27;;;;;;;;;;5054681;28;20183;-51
2022/08/08 03:40:29;;;;;;;2.88;1.17;;;;;;;;;;5054310;28;20033;-48
2022/08/08 03:42:57;;;;;;;1.17;1.08;;;;;;;;;;5054195;28;20142;-49
2022/08/08 03:45:24;;;;;;;1.80;0.90;;;24.50;54.30;;;;;;5054125;28;20018;-49
2022/08/08 03:48:03;;;;;;;1.63;1.25;;;24.60;90.10;;;;;;5054066;28;20037;-49
2022/08/08 03:50:30;;;;;;;1.65;1.10;;;24.40;54.60;;;;;;5054153;28;20025;-48
2022/08/08 03:52:56;;;;;;;1.17;1.08;;;;;;;;;;5054138;28;20033;-50
2022/08/08 03:55:23;;;;;;;1.92;1.13;;;24.50;53.30;;;;;;5054074;28;20025;-50
2022/08/08 03:57:52;;;;;;;1.27;1.17;;;24.40;54.50;;;;;;5053910;28;20098;-51
2022/08/08 04:00:21;;;;;;;1.50;1.15;;;24.50;90.00;;;;;;5053765;28;20049;-49
2022/08/08 04:06:37;;;;;;;1.23;1.08;;;24.70;90.10;;;;;;5040707;28;20052;-50
2022/08/08 04:09:06;;;;;;;2.50;1.20;;;24.40;54.60;;;;;;5033955;28;20083;-50
2022/08/08 04:11:32;;;;;;;2.30;1.40;;;;;;;;;;5033889;28;20507;-51
2022/08/08 04:13:58;;;;;;;1.15;0.80;;;;;;;;;;5033840;28;20026;-48
2022/08/08 04:16:25;;;;;;;0.95;0.93;;;24.40;54.30;;;;;;5033781;28;20060;-49
2022/08/08 04:18:51;;;;;;;2.92;1.30;;;24.50;89.90;;;;;;5033911;28;20068;-51
2022/08/08 04:21:17;;;;;;;1.40;1.10;;;24.60;90.10;;;;;;5033725;28;20495;-50
2022/08/08 04:23:42;;;;;;;1.50;1.00;;;24.70;90.00;;;;;;5033590;28;20050;-49
2022/08/08 04:26:09;;;;;;;1.85;1.40;;;24.50;54.60;;;;;;5033629;28;20112;-49
2022/08/08 04:28:35;;;;;;;1.50;1.20;;;;;;;;;;5033780;28;20036;-48
2022/08/08 04:31:01;;;;;;;1.40;0.98;;;24.50;90.00;;;;;;5033530;28;20034;-50
2022/08/08 04:33:27;;;;;;;1.27;1.08;;;;;;;;;;5015803;28;20074;-49
2022/08/08 04:35:53;;;;;;;1.55;1.00;;;;;;;;;;5033485;28;20025;-50
2022/08/08 04:38:19;;;;;;;1.90;1.08;;;;;;;;;;5033481;28;20030;-51
2022/08/08 04:40:44;;;;;;;1.70;1.10;;;24.60;90.10;;;;;;5033328;28;20030;-52
2022/08/08 04:43:10;;;;;;;1.50;1.23;;;;;;;;;;5033239;28;20368;-51
2022/08/08 04:45:36;;;;;;;1.75;1.30;;;;;;;;;;5033186;28;20033;-52
2022/08/08 04:48:03;;;;;;;1.50;0.95;;;;;;;;;;5033199;28;20035;-50
2022/08/08 04:50:29;;;;;;;1.38;1.00;;;;;;;;;;5033137;28;20502;-49
2022/08/08 04:52:55;;;;;;;2.10;0.85;;;;;;;;;;5033008;28;20037;-50
2022/08/08 04:55:21;;;;;;;2.83;1.08;;;24.40;90.10;;;;;;5033074;28;20510;-49
2022/08/08 04:57:47;;;;;;;1.35;0.90;;;;;;;;;;5033012;28;20057;-49
2022/08/08 05:00:13;;;;;;;1.67;0.77;;;23.90;55.90;;;;;;5032959;28;20026;-49
2022/08/08 05:02:38;;;;;;;1.42;1.00;;;24.10;90.10;;;;;;5032797;28;20052;-50
2022/08/08 05:05:04;;;;;;;1.20;1.00;;;;;;;;;;5032883;28;20395;-50
2022/08/08 05:07:31;;;;;;;1.33;1.00;;;;;;;;;;5032801;28;20029;-48
2022/08/08 05:09:57;;;;;;;0.90;0.85;;;;;;;;;;5032817;28;20034;-49
2022/08/08 05:12:23;;;;;;;1.95;1.20;;;;;;;;;;5033077;28;20033;-49
2022/08/08 05:14:49;;;;;;;4.50;1.17;;;;;;;;;;5032277;28;20033;-50
2022/08/08 05:17:14;;;;;;;3.13;1.10;;;24.40;90.10;;;;;;5032707;28;20053;-49
2022/08/08 05:19:40;;;;;;;2.10;1.15;;;;;;;;;;5032595;28;20045;-50
2022/08/08 05:22:08;;;;;;;2.05;0.90;;;24.30;53.80;;;;;;5032599;28;20033;-51
2022/08/08 05:24:34;;;;;;;1.77;1.00;;;;;;;;;;5032676;28;20278;-49
2022/08/08 05:27:00;;;;;;;1.60;0.90;;;;;;;;;;5032522;28;20114;-49
2022/08/08 05:29:26;;;;;;;1.48;0.98;;;;;;;;;;5032590;28;20041;-49
2022/08/08 05:31:52;;;;;;;1.15;1.00;;;;;;;;;;5032758;28;20026;-49
2022/08/08 05:34:18;;;;;;;1.48;1.13;;;;;;;;;;5032536;28;20084;-49
2022/08/08 05:36:46;;;;;;;1.20;1.10;;;24.30;55.30;;;;;;5032389;28;20057;-49
2022/08/08 05:39:13;;;;;;;1.70;1.13;;;;;;;;;;5032636;28;20037;-49
2022/08/08 05:41:41;;;;;;;1.60;0.93;;;24.00;90.30;;;;;;5032428;28;20468;-50
2022/08/08 05:44:20;;;;;;;1.38;0.70;;;23.70;90.10;;;;;;5032307;28;20395;-50
2022/08/08 05:46:46;;;;;;;1.88;1.00;;;;;;;;;;5032327;28;20475;-50
2022/08/08 05:49:15;;;;;;;1.15;0.80;;;24.40;55.10;;;;;;5032219;28;20033;-49
2022/08/08 05:51:41;;;;;;;2.13;0.90;;;;;;;;;;5032308;28;20018;-49
2022/08/08 05:54:07;;;;;;;2.45;1.10;;;;;;;;;;5032232;28;20493;-50
2022/08/08 05:56:37;;;;;;;1.45;1.10;;;24.30;55.30;;;;;;5032568;28;20028;-50
2022/08/08 05:59:04;;;;;;;;;;;24.30;55.80;;;;;;5032745;28;20083;-49
2022/08/08 06:01:30;;;;;;;2.45;0.80;;;;;;;;;;5032182;28;20420;-50
2022/08/08 06:04:03;;;;;;;1.45;0.80;;;24.20;50.70;;;;;;5031955;28;20503;-49
2022/08/08 06:06:30;;;;;;;1.75;1.02;;;24.20;54.60;;;;;;5032254;28;20462;-49
2022/08/08 06:09:00;;;;;;;2.63;1.00;;;24.20;55.60;;;;;;5032169;28;20033;-52
2022/08/08 06:11:29;;;;;;;;;;;24.20;56.20;;;;;;5032623;28;20096;-49
2022/08/08 06:13:55;;;;;;;1.80;1.00;;;;;;;;;;5032112;28;19905;-49
2022/08/08 06:16:22;;;;;;;2.15;1.15;;;;;;;;;;5032021;28;20491;-49
2022/08/08 06:18:50;;;;;;;1.48;0.85;;;24.60;90.60;;;;;;5032094;28;20031;-48
2022/08/08 06:21:16;;;;;;;1.90;1.10;;;;;;;;;;5031883;28;20030;-49
2022/08/08 06:23:42;;;;;;;6.05;1.08;;;;;;;;;;5031817;28;20553;-50
2022/08/08 06:26:11;;;;;;;2.92;0.90;;;24.40;55.40;;;;;;5031844;28;20025;-49
2022/08/08 06:28:57;;;;;;;5.43;1.00;;;24.50;90.50;;;;;;5035975;28;20118;-50
2022/08/08 06:31:23;;;;;;;5.22;1.20;;;;;;;;;;5035766;28;20020;-50
2022/08/08 06:33:59;;;;;;;5.15;1.20;;;24.50;90.70;;;;;;5035709;28;20034;-49
2022/08/08 06:36:36;;;;;;;2.40;1.00;;;24.70;90.80;;;;;;5035690;28;20431;-48
2022/08/08 06:39:03;;;;;;;3.42;1.30;;;24.40;55.80;;;;;;5035671;28;20119;-49
2022/08/08 06:41:32;;;;;;;2.80;1.00;;;24.40;55.90;;;;;;5035540;28;20492;-48
2022/08/08 06:44:03;;;;;;;4.95;1.15;;;24.30;55.60;;;;;;5035465;28;20073;-49
2022/08/08 06:46:29;;;;;;;4.20;1.23;;;24.40;54.80;;;;;;5035491;28;20033;-49
2022/08/08 06:48:55;;;;;;;2.22;0.90;;;24.40;55.10;;;;;;5035506;28;20030;-50
2022/08/08 06:51:21;;;;;;;3.92;1.02;;;24.40;90.70;;;;;;5035333;28;20033;-49
2022/08/08 06:53:48;;;;;;;5.93;1.20;;;24.50;90.80;;;;;;5035323;28;20022;-48
2022/08/08 06:56:14;;;;;;;3.53;1.10;;;;;;;;;;5035213;28;20037;-48
2022/08/08 06:58:40;;;;;;;2.38;1.00;;;;;;;;;;5035227;28;20361;-48
2022/08/08 07:01:09;;;;;;;2.75;1.17;;;24.30;56.00;;;;;;5035484;28;20024;-49
2022/08/08 07:04:00;;;;;;;3.20;0.82;;;24.50;90.80;;;;;;5034995;28;20077;-49
2022/08/08 07:06:30;;;;;;;2.65;0.88;;;24.30;56.20;;;;;;5035083;28;20025;-49
2022/08/08 07:09:11;;;;;;;1.83;1.00;;;24.30;51.10;;;;;;5035081;28;20040;-49
2022/08/08 07:11:41;;;;;;;3.75;1.30;;;24.60;90.60;;;;;;5034989;28;20033;-50
2022/08/08 07:14:07;;;;;;;3.95;0.77;;;24.50;90.70;;;;;;5034935;28;20025;-50
2022/08/08 07:17:05;;;;;;;2.80;0.98;;;24.40;51.30;;;;;;5034755;28;20029;-50
2022/08/08 07:19:43;;;;;;;3.53;1.33;;;24.50;90.80;;;;;;5023009;28;20424;-49
2022/08/08 07:22:10;;;;;;;3.85;1.05;;;;;;;;;;5016903;28;20494;-50
2022/08/08 07:24:39;;;;;;;2.05;1.05;;;24.40;69.00;;;;;;5034813;28;20405;-48
2022/08/08 07:27:05;;;;;;;2.22;1.10;;;;;;;;;;5034772;28;20032;-51
2022/08/08 07:29:33;;;;;;;1.63;1.08;;;24.40;56.50;;;;;;5034643;28;20034;-52
2022/08/08 07:31:59;;;;;;;5.13;0.75;;;24.20;90.80;;;;;;5034635;28;20468;-53
2022/08/08 07:34:26;;;;;;;1.42;0.77;;;24.70;91.00;;;;;;5034490;28;20104;-49
2022/08/08 07:36:53;;;;;;;2.45;1.10;;;24.40;56.30;;;;;;5034502;28;20596;-49
2022/08/08 07:39:22;;;;;;;2.55;1.10;;;24.50;90.80;;;;;;5033973;28;20031;-49
2022/08/08 07:41:49;;;;;;;3.13;0.82;;;24.40;53.60;;;;;;5034498;28;20036;-48
2022/08/08 07:44:17;;;;;;;6.25;1.00;;;24.40;56.00;;;;;;5034281;28;20087;-49
2022/08/08 07:46:44;;;;;;;1.95;0.90;;;24.00;90.50;;;;;;5034374;28;20135;-49
2022/08/08 07:49:12;;;;;;;3.50;0.70;;;;;;;;;;5034317;28;20467;-49
2022/08/08 07:51:38;;;;;;;1.98;0.88;;;;;;;;;;5034195;28;20411;-49
2022/08/08 07:54:36;;;;;;;1.65;1.02;;;24.20;65.80;;;;;;5034007;28;20021;-48
2022/08/08 07:57:29;;;;;;;1.75;0.80;;;24.70;90.60;;;;;;5034015;28;20029;-49
2022/08/08 08:00:08;;;;;;;2.00;1.00;;;24.70;90.60;;;;;;5034085;28;20021;-50
2022/08/08 08:03:01;;;;;;;4.95;0.60;;;24.50;51.40;;;;;;5033814;28;20041;-49
2022/08/08 08:05:28;;;;;;;1.63;0.93;;;24.50;56.00;;;;;;5033925;28;20104;-50
2022/08/08 08:08:01;;;;;;;1.92;0.80;;;24.50;56.00;;;;;;5033783;28;20021;-49
2022/08/08 08:10:29;;;;;;;2.60;0.82;;;24.50;56.10;;;;;;5033769;28;20034;-48
2022/08/08 08:13:21;;;;;;;1.75;0.85;;;24.40;90.50;;;;;;5033769;28;20108;-50
2022/08/08 08:16:03;;;;;;;2.63;0.70;;;24.50;51.20;;;;;;5033620;28;20116;-50
2022/08/08 08:18:40;;;;;;;2.08;0.85;;;24.50;74.10;;;;;;5033654;28;20048;-49
2022/08/08 08:21:07;;;;;;;5.07;1.10;;;;;;;;;;5033663;28;20033;-48
2022/08/08 08:23:33;;;;;;;1.33;0.70;;;;;;;;;;5033661;28;20034;-49
2022/08/08 08:25:59;;;;;;;1.42;0.60;;;;;;;;;;5033416;28;20499;-50
2022/08/08 08:28:24;;;;;;;1.17;0.88;;;24.40;90.50;;;;;;5033714;28;20431;-50
2022/08/08 08:30:51;;;;;;;1.38;0.95;;;24.50;55.50;;;;;;5033361;28;20022;-48
2022/08/08 08:33:17;;;;;;;1.88;0.73;;;;;;;;;;5033385;28;20112;-49
2022/08/08 08:35:43;;;;;;;1.90;0.80;;;24.80;90.30;;;;;;5033465;28;20061;-50
2022/08/08 08:38:09;;;;;;;2.60;1.10;;;24.40;90.30;;;;;;5033312;28;20126;-50
2022/08/08 08:40:35;;;;;;;2.20;0.85;;;24.30;89.90;;;;;;5033160;28;20356;-48
2022/08/08 08:43:01;;;;;;;2.88;0.93;;;24.20;89.60;;;;;;5033116;28;20044;-48
2022/08/08 08:45:28;;;;;;;3.42;0.95;;;;;;;;;;5033064;28;20073;-50
2022/08/08 08:47:54;;;;;;;1.80;0.80;;;27.60;55.30;;;;;;5033074;28;20091;-49
2022/08/08 08:50:22;;;;;;;2.35;0.82;;;24.60;54.10;;;;;;5032272;28;20495;-48
2022/08/08 08:52:48;;;;;;;1.75;0.68;;;;;;;;;;5032988;28;20026;-50
2022/08/08 08:55:17;;;;;;;2.72;0.98;;;24.90;71.30;;;;;;5033037;28;20037;-50
2022/08/08 08:57:43;;;;;;;2.63;1.00;;;25.00;89.00;;;;;;5032755;28;20017;-49
2022/08/08 09:00:10;;;;;;;2.90;0.60;;;24.90;87.80;;;;;;5032794;28;20080;-48
2022/08/08 09:02:38;;;;;;;1.83;0.88;;;24.90;53.30;;;;;;5032509;28;20053;-48
2022/08/08 09:05:08;;;;;;;2.65;0.82;;;24.90;53.20;;;;;;5032759;28;20036;-48
2022/08/08 09:07:35;;;;;;;7.65;1.10;;;24.90;53.10;;;;;;5014880;28;20037;-48
2022/08/08 09:10:02;;;;;;;6.93;1.10;;;24.80;88.00;;;;;;5032679;28;20033;-49
2022/08/08 09:12:30;;;;;;;2.58;0.93;;;25.00;88.00;;;;;;5032502;28;20071;-50
2022/08/08 09:14:56;;;;;;;3.33;0.82;;;25.10;77.30;;;;;;5032659;28;20033;-44
2022/08/08 09:17:23;;;;;;;5.13;1.40;;;25.00;51.90;;;;;;5032838;28;20053;-45
2022/08/08 09:19:55;;;;;;;5.97;1.00;;;25.30;88.50;;;;;;5032529;28;20029;-45
2022/08/08 09:22:22;;;;;;;3.50;1.35;;;25.20;88.40;;;;;;5032760;28;20030;-44
2022/08/08 09:24:49;;;;;;;7.40;1.00;;;24.70;54.40;;;;;;5032747;28;20026;-44
2022/08/08 09:27:17;;;;;;;5.93;1.38;;;25.10;89.50;;;;;;5032508;28;20093;-45
2022/08/08 09:30:00;;;;;;;7.93;1.25;;;25.10;84.10;;;;;;5032477;28;20026;-44
2022/08/08 09:32:36;;;;;;;5.32;1.20;;;25.10;50.30;;;;;;5032715;28;20361;-44
2022/08/08 09:35:06;;;;;;;3.28;1.15;;;25.40;90.10;;;;;;5032370;28;20472;-45
2022/08/08 09:37:43;;;;;;;4.82;0.90;;;25.10;54.70;;;;;;5032444;28;20021;-45
2022/08/08 09:40:10;;;;;;;3.85;1.10;;;25.10;89.60;;;;;;5032388;28;20108;-44
2022/08/08 09:42:39;;;;;;;6.28;1.15;;;25.20;54.50;;;;;;5032316;28;20025;-45
2022/08/08 09:45:19;;;;;;;4.85;1.15;;;25.00;89.70;;;;;;5032215;28;20029;-45
2022/08/08 09:47:46;;;;;;;2.88;1.20;;;25.30;52.30;;;;;;5032268;28;20021;-45
2022/08/08 09:50:22;;;;;;;7.22;1.15;;;25.30;49.90;;;;;;5032151;28;20511;-44
2022/08/08 09:52:50;;;;;;;5.63;1.30;;;25.10;89.20;;;;;;5032182;28;20112;-45
2022/08/08 09:55:16;;;;;;;4.88;1.05;;;;;;;;;;5032078;28;20036;-45
2022/08/08 09:57:46;;;;;;;4.50;0.98;;;25.40;54.20;;;;;;5032247;28;20029;-45
2022/08/08 10:00:13;;;;;;;5.47;1.03;;;25.50;89.20;;;;;;5032224;28;20405;-44
2022/08/08 10:02:42;;;;;;;3.35;1.23;;;25.40;53.90;;;;;;5018032;28;20046;-45
2022/08/08 10:05:17;;;;;;;6.40;1.23;;;25.50;89.20;;;;;;5036182;28;20033;-45
2022/08/08 10:07:50;;;;;;;4.95;0.95;;;25.50;53.70;;;;;;5036190;28;20026;-45
2022/08/08 10:10:45;;;;;;;6.47;0.90;;;25.30;49.20;;;;;;5036193;28;20048;-44
2022/08/08 10:13:20;;;;;;;2.33;0.85;;;25.20;88.60;;;;;;5023343;28;20084;-45
2022/08/08 10:15:52;;;;;;;3.00;1.02;;;25.50;53.50;;;;;;5018188;28;20037;-45
2022/08/08 10:18:47;;;;;;;6.18;1.00;;;25.50;49.10;;;;;;5035783;28;20037;-45
2022/08/08 10:21:18;;;;;;;4.88;1.08;;;25.10;89.00;;;;;;5023078;28;20120;-45
2022/08/08 10:23:47;;;;;;;5.03;0.95;;;25.80;89.90;;;;;;5036037;28;20037;-45
2022/08/08 10:26:30;;;;;;;3.97;1.08;;;25.40;89.90;;;;;;5035748;28;20100;-46
2022/08/08 10:29:10;;;;;;;6.30;1.10;;;25.50;54.80;;;;;;5035770;28;20104;-45
2022/08/08 10:34:27;;;;;;;;;;;25.50;56.00;;;;;;4998466;28;20030;-45
2022/08/08 10:36:53;;;;;;;7.55;1.40;;;;;;;;;;5035869;28;19951;-46
2022/08/08 10:39:27;;;;;;;5.07;0.98;;;25.70;90.60;;;;;;5035773;28;20036;-48
2022/08/08 10:42:04;;;;;;;7.85;1.38;;;25.90;90.70;;;;;;5035724;28;20101;-45
2022/08/08 10:44:37;;;;;;;7.65;1.08;;;25.70;90.80;;;;;;5035323;28;20030;-47
2022/08/08 10:47:14;;;;;;;12.65;1.27;;;25.90;91.10;;;;;;5035375;28;20021;-46
2022/08/08 10:49:41;;;;;;;12.95;1.58;;;25.80;91.00;;;;;;5035364;28;20033;-48
2022/08/08 10:52:07;;;;;;;9.57;1.30;;;;;;;;;;5035182;28;20365;-47
2022/08/08 10:54:33;;;;;;;10.88;1.55;;;;;;;;;;5035300;28;20026;-49
2022/08/08 10:57:01;;;;;;;4.72;1.40;;;25.80;55.90;;;;;;5035577;28;20105;-45
2022/08/08 10:59:27;;;;;;;8.55;1.00;;;;;;;;;;5035186;28;20018;-45
2022/08/08 11:01:53;;;;;;;5.25;0.93;;;;;;;;;;5034871;28;20072;-47
2022/08/08 11:04:19;;;;;;;3.92;1.13;;;26.00;90.30;;;;;;5035087;28;20029;-48
2022/08/08 11:06:45;;;;;;;5.60;0.90;;;;;;;;;;5035031;28;20040;-45
2022/08/08 11:09:12;;;;;;;9.40;0.90;;;;;;;;;;5034842;28;20091;-46
2022/08/08 11:11:43;;;;;;;2.67;0.95;;;25.50;90.00;;;;;;5034820;28;20121;-46
2022/08/08 11:14:11;;;;;;;5.68;1.27;;;25.80;54.90;;;;;;5034036;28;20029;-45
2022/08/08 11:16:44;;;;;;;5.68;1.10;;;26.10;90.00;;;;;;5034705;28;20025;-48
2022/08/08 11:19:11;;;;;;;2.47;1.00;;;25.80;53.80;;;;;;5034711;28;20032;-46
2022/08/08 11:21:44;;;;;;;3.15;1.25;;;25.80;54.80;;;;;;5034799;28;20112;-46
2022/08/08 11:24:10;;;;;;;4.30;0.80;;;25.70;90.00;;;;;;5034620;28;20076;-46
2022/08/08 11:26:39;;;;;;;9.80;1.10;;;25.80;54.10;;;;;;5034628;28;20112;-46
2022/08/08 11:29:06;;;;;;;4.38;0.80;;;25.80;54.60;;;;;;5034674;28;20053;-46
2022/08/08 11:31:38;;;;;;;4.70;0.95;;;25.90;58.70;;;;;;5034577;28;20040;-44
2022/08/08 11:34:05;;;;;;;4.93;1.13;;;;;;;;;;5034513;28;20491;-48
2022/08/08 11:36:32;;;;;;;3.03;0.93;;;25.90;54.30;;;;;;5034483;28;20083;-46
2022/08/08 11:38:58;;;;;;;7.05;0.98;;;;;;;;;;5034525;28;20526;-47
2022/08/08 11:41:25;;;;;;;4.25;1.00;;;25.80;54.10;;;;;;5034421;28;20037;-50
2022/08/08 11:43:53;;;;;;;2.85;0.90;;;25.70;54.50;;;;;;5034418;28;20510;-45
2022/08/08 11:46:23;;;;;;;5.10;1.33;;;26.10;89.60;;;;;;5034282;28;20032;-45
2022/08/08 11:48:49;;;;;;;3.22;1.25;;;25.80;54.50;;;;;;5034298;28;20057;-48
2022/08/08 11:51:20;;;;;;;3.97;0.98;;;25.40;89.40;;;;;;5034232;28;20029;-45
2022/08/08 11:53:46;;;;;;;2.45;0.90;;;;;;;;;;5034418;28;20053;-46
2022/08/08 11:56:22;;;;;;;3.97;0.70;;;25.40;58.50;;;;;;5034166;28;20037;-45
2022/08/08 11:58:49;;;;;;;5.95;1.00;;;;;;;;;;5034079;28;20021;-44
2022/08/08 12:01:15;;;;;;;4.38;0.88;;;;;;;;;;5033978;28;20097;-45
2022/08/08 12:03:46;;;;;;;2.35;0.80;;;25.70;89.10;;;;;;5033863;28;20124;-47
2022/08/08 12:06:16;;;;;;;3.28;0.75;;;26.20;89.50;;;;;;5034017;28;20172;-46
2022/08/08 12:08:42;;;;;;;2.95;0.80;;;;;;;;;;5034014;28;20045;-45
2022/08/08 12:11:17;;;;;;;2.65;0.80;;;26.00;64.30;;;;;;5033935;28;20068;-45
2022/08/08 12:13:44;;;;;;;8.50;1.05;;;25.40;88.90;;;;;;5033881;28;20028;-45
2022/08/08 12:16:15;;;;;;;3.50;1.10;;;25.80;49.80;;;;;;5033748;28;20034;-45
2022/08/08 12:18:52;;;;;;;5.32;0.98;;;25.80;89.40;;;;;;5034013;28;20022;-45
2022/08/08 12:21:25;;;;;;;3.17;0.80;;;25.50;89.20;;;;;;5015930;28;20488;-44
2022/08/08 12:24:08;;;;;;;4.10;0.90;;;26.30;90.00;;;;;;5033853;28;20037;-45
2022/08/08 12:26:40;;;;;;;2.50;1.20;;;26.10;89.90;;;;;;5033552;28;20021;-46
2022/08/08 12:29:24;;;;;;;4.20;1.05;;;26.10;51.50;;;;;;5033549;28;20026;-45
2022/08/08 12:32:19;;;;;;;1.88;0.70;;;26.00;52.10;;;;;;5033410;28;20487;-46
2022/08/08 12:34:55;;;;;;;2.28;0.80;;;26.20;89.50;;;;;;5020394;28;20041;-46
2022/08/08 12:37:27;;;;;;;3.95;0.70;;;25.90;88.80;;;;;;5033288;28;20021;-45
2022/08/08 12:39:53;;;;;;;3.45;0.88;;;;;;;;;;5033277;28;20052;-44
2022/08/08 12:42:19;;;;;;;1.65;0.60;;;26.10;89.70;;;;;;5033181;28;20498;-45
2022/08/08 12:44:45;;;;;;;2.53;0.70;;;25.70;89.00;;;;;;5033260;28;20033;-45
2022/08/08 12:47:11;;;;;;;2.80;0.60;;;;;;;;;;5033223;28;20029;-46
2022/08/08 12:49:38;;;;;;;3.90;0.50;;;25.90;53.80;;;;;;5033123;28;20056;-46
2022/08/08 12:52:06;;;;;;;3.20;0.80;;;26.00;53.90;;;;;;5033085;28;20108;-46
2022/08/08 12:54:38;;;;;;;3.25;0.95;;;25.30;88.70;;;;;;5033034;28;20032;-45
2022/08/08 12:57:14;;;;;;;1.70;0.75;;;25.60;88.90;;;;;;5033036;28;20426;-45
2022/08/08 12:59:50;;;;;;;3.92;0.80;;;25.90;49.60;;;;;;5015198;28;20037;-51
2022/08/08 13:02:27;;;;;;;1.42;0.63;;;25.60;88.60;;;;;;5032685;28;20052;-51
2022/08/08 13:04:54;;;;;;;1.25;0.80;;;25.90;53.00;;;;;;5032674;28;20106;-50
2022/08/08 13:07:20;;;;;;;4.30;0.90;;;;;;;;;;5032615;28;20026;-47
2022/08/08 13:09:57;;;;;;;5.05;1.17;;;25.90;53.60;;;;;;5032548;28;20033;-49
2022/08/08 13:12:28;;;;;;;2.45;0.60;;;25.70;88.40;;;;;;5032566;28;20017;-50
2022/08/08 13:14:56;;;;;;;2.03;0.50;;;26.00;53.70;;;;;;5032516;28;20025;-47
2022/08/08 13:17:26;;;;;;;2.92;0.82;;;25.70;88.50;;;;;;5032696;28;20365;-46
2022/08/08 13:19:55;;;;;;;1.63;0.60;;;26.00;49.40;;;;;;5032624;28;20033;-46
2022/08/08 13:22:22;;;;;;;4.90;0.70;;;25.90;52.80;;;;;;5032663;28;20096;-47
2022/08/08 13:24:48;;;;;;;2.42;0.90;;;25.90;88.80;;;;;;5032541;28;20060;-45
2022/08/08 13:27:40;;;;;;;1.75;0.70;;;25.70;88.70;;;;;;5032533;28;20044;-45
2022/08/08 13:30:06;;;;;;;2.20;0.82;;;26.20;89.20;;;;;;5029353;28;20033;-46
2022/08/08 13:32:36;;;;;;;8.35;1.38;;;25.80;50.20;;;;;;5032240;28;20104;-45
2022/08/08 13:35:06;;;;;;;11.30;0.90;;;26.00;55.30;;;;;;5032183;28;20059;-46
2022/08/08 13:37:32;;;;;;;8.05;0.95;;;;;;;;;;5032265;28;20029;-46
2022/08/08 13:40:03;;;;;;;6.25;1.00;;;26.00;55.90;;;;;;5032427;28;20022;-46
2022/08/08 13:42:29;;;;;;;5.57;1.02;;;25.80;79.60;;;;;;5032317;28;20056;-46
2022/08/08 13:44:59;;;;;;;9.13;0.88;;;26.10;56.80;;;;;;5032254;28;20484;-46
2022/08/08 13:47:25;;;;;;;;;;;26.10;57.50;;;;;;5032708;28;20033;-46
2022/08/08 13:50:06;;;;;;;7.45;0.90;;;26.20;91.10;;;;;;5032097;28;20367;-47
2022/08/08 13:52:31;;;;;;;;;;;26.20;53.30;;;;;;5032600;28;20068;-47